Decoded Metar for KRME (ROME in NY, USA) (IATA:RME) | Meteo·Mobile Aviation Weather
aviador You're here:

KRME Decoded Metar

ROME in NY, USA
Report Time2019-05-21 01:53:00
UTC Time2019-05-21 02:48:12
Flight Rules vfr VFR
Wind290° at 18 Gusting to 25 kt
W.Decomp.*RWY 33: 16.0 kt HW 8.2 kt LCW
Visibility9999 m
Phenomena:N/A
Clouds:Few 034 Hf
Scattered 050 Hf
Expected CloudBase > 2,800 ft AGL from Temp-Dew spread
CeilingNone
Temp12°C (ISA -2)
Dew Point05°C (63% RH)
AAT4.4°C
QNH1013 hPa
Density Alt387 ft
Elevation505 ft
Report Wrong Elevation
Raw Report
KRME 210153Z AUTO 29018G25KT 10SM FEW034 SCT050 12/05 A2990 RMK
AO2 SLP123 T01170050=

Extra information for KRME:More info

Metar Taf Metar & Taf Last 4 Metars F.Rules Stats Wind Profile Meteogram Temp Stats Airport Information Weather charts Add Link Nearby VenuesMetar ALERT Operation Metar Decoded Social comments

AIRNAV info for KRME